Time;durP1;ratioP1;P1;durP2;ratioP2;P2;SDS_P1;SDS_P2;PMS_P1;PMS_P2;Temp;Humidity;BMP_temperature;BMP_pressure;BME280_temperature;BME280_humidity;BME280_pressure;Samples;Min_cycle;Max_cycle;Signal;HPM_P1;HPM_P2
2023/08/22 00:00:32;;;;;;;1.47;1.33;;;26.60;98.60;;;;;;5020418;28;20278;-86
2023/08/22 00:03:00;;;;;;;2.77;1.40;;;26.50;98.50;;;;;;5025046;28;20288;-86
2023/08/22 00:05:26;;;;;;;1.93;1.60;;;26.60;98.50;;;;;;5033028;28;20242;-87
2023/08/22 00:07:53;;;;;;;2.83;1.63;;;26.60;98.50;;;;;;5020097;28;20205;-86
2023/08/22 00:10:19;;;;;;;1.60;1.43;;;26.50;98.50;;;;;;5019520;28;20200;-86
2023/08/22 00:12:45;;;;;;;2.23;1.50;;;26.50;98.50;;;;;;5019019;28;20176;-86
2023/08/22 00:15:12;;;;;;;2.47;1.70;;;26.50;98.50;;;;;;5034964;28;20531;-86
2023/08/22 00:17:42;;;;;;;2.10;1.43;;;26.50;98.50;;;;;;5019972;28;20394;-86
2023/08/22 00:20:08;;;;;;;1.53;1.30;;;26.50;98.50;;;;;;5019037;28;20177;-86
2023/08/22 00:22:38;;;;;;;1.70;1.53;;;26.50;98.50;;;;;;5018600;28;20177;-86
2023/08/22 00:25:04;;;;;;;1.90;1.50;;;26.50;98.40;;;;;;5017044;28;20184;-86
2023/08/22 00:27:30;;;;;;;1.63;1.30;;;26.50;98.40;;;;;;5020580;28;20215;-86
2023/08/22 00:29:57;;;;;;;2.77;1.70;;;26.40;98.40;;;;;;5020875;28;20208;-86
2023/08/22 00:32:26;;;;;;;1.60;1.40;;;26.40;98.40;;;;;;5036600;28;20677;-86
2023/08/22 00:34:52;;;;;;;4.37;1.87;;;26.40;98.40;;;;;;5015804;28;20190;-86
2023/08/22 00:37:18;;;;;;;2.20;1.50;;;26.40;98.40;;;;;;5015192;28;20222;-86
2023/08/22 00:39:44;;;;;;;1.60;1.50;;;26.40;98.40;;;;;;5037264;28;20183;-86
2023/08/22 00:42:10;;;;;;;2.03;1.53;;;26.40;98.40;;;;;;5017674;28;20185;-86
2023/08/22 00:44:36;;;;;;;3.07;1.60;;;26.40;98.40;;;;;;5020253;28;20180;-86
2023/08/22 00:47:02;;;;;;;1.63;1.53;;;26.30;98.40;;;;;;5035318;28;20192;-86
2023/08/22 00:49:28;;;;;;;2.00;1.60;;;26.30;98.30;;;;;;5019678;28;20262;-86
2023/08/22 00:51:58;;;;;;;1.90;1.40;;;26.30;98.40;;;;;;5019198;28;20576;-86
2023/08/22 00:54:26;;;;;;;1.67;1.40;;;26.30;98.60;;;;;;5016781;28;20181;-86
2023/08/22 00:56:53;;;;;;;1.97;1.60;;;26.30;98.40;;;;;;5017692;28;20359;-86
2023/08/22 00:59:19;;;;;;;2.40;1.50;;;26.30;98.30;;;;;;5018985;28;20621;-86
2023/08/22 01:01:46;;;;;;;2.57;1.63;;;26.20;98.30;;;;;;5019042;28;20278;-87
2023/08/22 01:04:12;;;;;;;2.87;1.60;;;26.20;98.40;;;;;;5016375;28;20173;-87
2023/08/22 01:06:40;;;;;;;3.00;1.70;;;26.20;98.40;;;;;;5017603;28;20185;-86
2023/08/22 01:09:25;;;;;;;1.90;1.50;;;26.20;98.30;;;;;;5036237;28;20287;-86
2023/08/22 01:11:55;;;;;;;2.63;1.70;;;26.20;98.30;;;;;;5016711;28;20539;-87
2023/08/22 01:14:22;;;;;;;2.60;1.60;;;26.20;98.30;;;;;;5020181;28;20223;-87
2023/08/22 01:16:49;;;;;;;1.60;1.50;;;26.20;98.30;;;;;;5018859;28;20181;-87
2023/08/22 01:19:18;;;;;;;2.23;1.70;;;26.20;98.30;;;;;;5017050;28;20180;-86
2023/08/22 01:21:54;;;;;;;2.63;1.73;;;26.20;98.20;;;;;;5016435;28;20247;-87
2023/08/22 01:24:19;;;;;;;1.90;1.40;;;26.10;98.20;;;;;;5035786;28;20184;-86
2023/08/22 01:26:47;;;;;;;2.10;1.53;;;26.10;98.20;;;;;;5019081;28;20465;-87
2023/08/22 01:29:32;;;;;;;2.17;1.60;;;26.10;98.30;;;;;;5017260;28;20522;-87
2023/08/22 01:32:09;;;;;;;3.37;1.60;;;26.10;98.30;;;;;;5032325;28;20169;-86
2023/08/22 01:34:38;;;;;;;1.77;1.67;;;26.10;98.30;;;;;;5017119;28;20597;-86
2023/08/22 01:37:06;;;;;;;1.63;1.50;;;26.10;98.20;;;;;;5015907;28;20181;-87
2023/08/22 01:39:34;;;;;;;2.37;1.70;;;26.10;98.20;;;;;;5016372;28;20323;-87
2023/08/22 01:42:00;;;;;;;2.03;1.70;;;26.00;98.20;;;;;;5020410;28;20181;-86
2023/08/22 01:44:28;;;;;;;2.03;1.43;;;26.10;98.20;;;;;;5018615;28;20185;-86
2023/08/22 01:46:53;;;;;;;1.60;1.50;;;26.00;98.10;;;;;;5019248;28;20421;-87
2023/08/22 01:49:19;;;;;;;2.20;1.70;;;26.00;98.10;;;;;;5017337;28;20208;-86
2023/08/22 01:51:45;;;;;;;2.83;1.77;;;26.00;98.10;;;;;;5022454;28;20198;-87
2023/08/22 01:54:11;;;;;;;1.60;1.50;;;26.00;98.10;;;;;;5017943;28;20184;-86
2023/08/22 01:56:36;;;;;;;2.70;1.60;;;26.00;98.10;;;;;;5022477;28;20185;-86
2023/08/22 01:59:02;;;;;;;1.83;1.37;;;25.90;98.20;;;;;;5036980;28;20707;-86
2023/08/22 02:01:28;;;;;;;2.30;1.53;;;26.00;98.10;;;;;;5034834;28;20169;-86
2023/08/22 02:03:54;;;;;;;2.20;1.70;;;25.90;98.10;;;;;;5014948;28;20189;-86
2023/08/22 02:06:19;;;;;;;1.80;1.57;;;25.90;98.00;;;;;;5019555;28;20191;-86
2023/08/22 02:08:45;;;;;;;1.63;1.53;;;25.90;98.00;;;;;;5019593;28;20208;-86
2023/08/22 02:11:11;;;;;;;1.80;1.50;;;25.90;98.10;;;;;;5037804;28;20160;-86
2023/08/22 02:13:37;;;;;;;1.80;1.60;;;25.90;98.10;;;;;;5019736;28;20177;-86
2023/08/22 02:16:03;;;;;;;1.90;1.53;;;25.90;98.10;;;;;;5018153;28;20177;-86
2023/08/22 02:18:29;;;;;;;1.50;1.40;;;25.80;98.10;;;;;;5019689;28;20176;-86
2023/08/22 02:20:56;;;;;;;2.30;1.60;;;25.80;98.00;;;;;;5015732;28;20195;-86
2023/08/22 02:23:22;;;;;;;1.77;1.40;;;25.80;98.00;;;;;;5024355;28;20177;-86
2023/08/22 02:25:47;;;;;;;2.33;1.50;;;25.80;98.00;;;;;;5034885;28;20475;-86
2023/08/22 02:28:13;;;;;;;2.70;1.70;;;25.90;98.00;;;;;;5024924;28;20258;-86
2023/08/22 02:30:39;;;;;;;1.60;1.50;;;25.80;97.90;;;;;;5017547;28;20467;-86
2023/08/22 02:33:05;;;;;;;1.93;1.50;;;25.80;98.00;;;;;;5018827;28;20184;-87
2023/08/22 02:35:31;;;;;;;2.70;1.90;;;25.80;98.00;;;;;;5033185;28;20566;-86
2023/08/22 02:37:57;;;;;;;1.40;1.30;;;25.80;98.00;;;;;;5017802;28;20170;-86
2023/08/22 02:40:23;;;;;;;1.60;1.50;;;25.80;98.00;;;;;;5028675;28;20209;-86
2023/08/22 02:42:49;;;;;;;1.63;1.53;;;25.70;98.00;;;;;;5017179;28;20174;-86
2023/08/22 02:45:15;;;;;;;1.90;1.50;;;25.70;98.00;;;;;;5018002;28;20526;-86
2023/08/22 02:47:42;;;;;;;1.60;1.50;;;25.70;98.00;;;;;;5018610;28;20176;-86
2023/08/22 02:50:08;;;;;;;3.33;1.60;;;25.70;97.90;;;;;;5016293;28;20520;-86
2023/08/22 02:52:34;;;;;;;2.63;1.40;;;25.70;97.90;;;;;;5015905;28;20209;-86
2023/08/22 02:54:59;;;;;;;1.80;1.70;;;25.80;97.90;;;;;;5032681;28;20266;-86
2023/08/22 02:57:25;;;;;;;1.33;1.23;;;25.70;97.80;;;;;;5016243;28;20184;-86
2023/08/22 02:59:51;;;;;;;1.60;1.50;;;25.70;97.90;;;;;;5017178;28;20542;-86
2023/08/22 03:02:17;;;;;;;2.03;1.60;;;25.70;97.90;;;;;;5014432;28;20182;-86
2023/08/22 03:04:44;;;;;;;1.80;1.60;;;25.70;98.00;;;;;;5021314;28;20179;-86
2023/08/22 03:07:10;;;;;;;1.70;1.50;;;25.70;97.90;;;;;;5015434;28;20185;-86
2023/08/22 03:09:38;;;;;;;2.07;1.50;;;25.70;97.90;;;;;;5019406;28;20571;-86
2023/08/22 03:12:05;;;;;;;2.70;1.50;;;25.70;98.10;;;;;;5032501;28;20179;-86
2023/08/22 03:14:31;;;;;;;1.63;1.50;;;25.70;97.80;;;;;;5017501;28;20276;-86
2023/08/22 03:16:57;;;;;;;2.47;1.67;;;25.60;97.80;;;;;;5034703;28;20173;-86
2023/08/22 03:19:22;;;;;;;2.20;1.60;;;25.60;97.80;;;;;;5020532;28;20231;-86
2023/08/22 03:21:49;;;;;;;1.70;1.60;;;25.60;97.80;;;;;;5017724;28;20271;-86
2023/08/22 03:24:14;;;;;;;2.87;1.60;;;25.60;97.70;;;;;;5021175;28;20425;-86
2023/08/22 03:26:40;;;;;;;2.37;1.50;;;25.60;97.70;;;;;;5017505;28;20724;-86
2023/08/22 03:29:06;;;;;;;2.53;1.70;;;25.60;97.80;;;;;;5034080;28;20239;-86
2023/08/22 03:31:32;;;;;;;2.10;1.47;;;25.60;97.80;;;;;;5017004;28;20201;-86
2023/08/22 03:33:59;;;;;;;1.80;1.60;;;25.60;97.80;;;;;;5017699;28;20184;-86
2023/08/22 03:36:25;;;;;;;1.70;1.60;;;25.60;97.80;;;;;;5020313;28;20288;-86
2023/08/22 03:38:51;;;;;;;1.67;1.57;;;25.50;97.80;;;;;;5015896;28;20275;-86
2023/08/22 03:41:20;;;;;;;2.50;1.70;;;25.60;97.90;;;;;;5016147;28;20590;-86
2023/08/22 03:43:45;;;;;;;2.13;1.63;;;25.60;97.80;;;;;;5015533;28;20432;-86
2023/08/22 03:46:11;;;;;;;3.23;1.80;;;25.50;97.80;;;;;;5018518;28;20467;-86
2023/08/22 03:48:37;;;;;;;3.33;1.80;;;25.50;97.80;;;;;;5015030;28;20244;-86
2023/08/22 03:51:07;;;;;;;1.70;1.60;;;25.50;97.80;;;;;;5035084;28;20586;-86
2023/08/22 03:53:34;;;;;;;1.87;1.50;;;25.50;97.80;;;;;;5015781;28;20440;-86
2023/08/22 03:56:00;;;;;;;1.90;1.60;;;25.50;97.80;;;;;;5016851;28;20169;-86
2023/08/22 03:58:25;;;;;;;2.23;1.40;;;25.40;97.80;;;;;;5028963;28;20188;-86
2023/08/22 04:00:54;;;;;;;1.73;1.63;;;25.50;97.80;;;;;;5018178;28;20266;-86
2023/08/22 04:03:20;;;;;;;2.33;1.73;;;25.40;97.80;;;;;;5033837;28;20196;-86
2023/08/22 04:05:46;;;;;;;1.67;1.53;;;25.40;97.80;;;;;;5039436;28;20529;-86
2023/08/22 04:08:11;;;;;;;1.93;1.60;;;25.40;97.70;;;;;;5032737;28;20492;-86
2023/08/22 04:10:37;;;;;;;2.07;1.67;;;25.40;97.70;;;;;;5019901;28;20188;-86
2023/08/22 04:13:03;;;;;;;2.33;1.60;;;25.40;97.70;;;;;;5016322;28;20177;-86
2023/08/22 04:15:29;;;;;;;1.87;1.50;;;25.40;97.70;;;;;;5016195;28;20173;-86
2023/08/22 04:17:54;;;;;;;1.93;1.50;;;25.40;97.80;;;;;;5037282;28;20481;-86
2023/08/22 04:20:20;;;;;;;1.53;1.43;;;25.40;97.80;;;;;;5019126;28;20365;-86
2023/08/22 04:22:46;;;;;;;1.63;1.50;;;25.40;97.70;;;;;;5035628;28;20177;-86
2023/08/22 04:25:11;;;;;;;3.30;1.90;;;25.30;97.70;;;;;;5034948;28;20175;-86
2023/08/22 04:27:38;;;;;;;1.77;1.43;;;25.40;97.70;;;;;;5018002;28;20202;-86
2023/08/22 04:30:05;;;;;;;1.80;1.70;;;25.30;97.70;;;;;;5014841;28;20208;-86
2023/08/22 04:32:31;;;;;;;1.77;1.63;;;25.40;97.70;;;;;;5020556;28;20286;-86
2023/08/22 04:34:57;;;;;;;2.47;1.77;;;25.30;97.70;;;;;;5016816;28;20687;-86
2023/08/22 04:37:23;;;;;;;1.77;1.67;;;25.30;97.70;;;;;;5017771;28;20283;-86
2023/08/22 04:39:49;;;;;;;1.67;1.57;;;25.30;97.70;;;;;;5016245;28;20216;-86
2023/08/22 04:42:14;;;;;;;1.73;1.50;;;25.30;97.80;;;;;;5015499;28;20208;-86
2023/08/22 04:44:40;;;;;;;2.00;1.67;;;25.30;97.70;;;;;;5013925;28;20207;-86
2023/08/22 04:47:06;;;;;;;1.77;1.50;;;25.20;97.70;;;;;;5033918;28;20177;-87
2023/08/22 04:49:32;;;;;;;1.87;1.47;;;25.20;97.80;;;;;;5030401;28;20238;-87
2023/08/22 04:51:58;;;;;;;1.60;1.47;;;25.20;97.70;;;;;;5012797;28;20262;-86
2023/08/22 04:54:24;;;;;;;1.80;1.53;;;25.20;97.80;;;;;;5009719;28;20185;-86
2023/08/22 04:56:50;;;;;;;2.03;1.60;;;25.20;97.70;;;;;;5027979;28;20176;-86
2023/08/22 04:59:15;;;;;;;1.80;1.53;;;25.30;97.80;;;;;;5029460;28;20173;-86
2023/08/22 05:01:41;;;;;;;1.87;1.67;;;25.20;97.80;;;;;;5028780;28;20598;-87
2023/08/22 05:04:07;;;;;;;2.87;1.63;;;25.20;98.10;;;;;;5009989;28;20177;-87
2023/08/22 05:06:34;;;;;;;2.27;1.53;;;25.20;97.90;;;;;;5009810;28;20652;-87
2023/08/22 05:09:00;;;;;;;2.03;1.60;;;25.20;97.90;;;;;;4998654;28;20623;-86
2023/08/22 05:11:25;;;;;;;1.70;1.60;;;25.20;97.80;;;;;;4999538;28;20634;-86
2023/08/22 05:13:51;;;;;;;1.93;1.50;;;25.20;97.70;;;;;;5016480;28;20184;-86
2023/08/22 05:16:17;;;;;;;1.63;1.50;;;25.20;97.70;;;;;;5020289;28;20271;-86
2023/08/22 05:18:43;;;;;;;2.00;1.60;;;25.30;97.70;;;;;;5002317;28;20582;-86
2023/08/22 05:21:08;;;;;;;3.17;1.70;;;25.20;97.60;;;;;;5004622;28;20322;-87
2023/08/22 05:23:35;;;;;;;2.17;1.60;;;25.20;97.60;;;;;;5021501;28;20185;-86
2023/08/22 05:26:03;;;;;;;2.40;1.77;;;25.20;97.60;;;;;;5017351;28;20457;-87
2023/08/22 05:28:29;;;;;;;1.93;1.40;;;25.20;97.70;;;;;;5018937;28;20208;-87
2023/08/22 05:30:54;;;;;;;1.70;1.50;;;25.20;97.60;;;;;;4999969;28;20461;-87
2023/08/22 05:33:20;;;;;;;1.83;1.47;;;25.20;97.60;;;;;;5015485;28;20440;-87
2023/08/22 05:35:46;;;;;;;1.70;1.60;;;25.20;97.50;;;;;;4999950;28;20278;-86
2023/08/22 05:38:13;;;;;;;1.93;1.50;;;25.20;97.50;;;;;;4997983;28;20182;-87
2023/08/22 05:40:38;;;;;;;1.50;1.40;;;25.10;97.50;;;;;;4999619;28;20605;-87
2023/08/22 05:43:08;;;;;;;2.17;1.77;;;25.10;97.50;;;;;;4996297;28;20190;-87
2023/08/22 05:45:39;;;;;;;2.57;1.47;;;25.10;97.50;;;;;;5018898;28;20190;-86
2023/08/22 05:48:05;;;;;;;2.50;1.50;;;25.20;97.40;;;;;;4997007;28;20558;-87
2023/08/22 05:50:31;;;;;;;1.90;1.70;;;25.20;97.40;;;;;;5000291;28;20243;-86
2023/08/22 05:52:57;;;;;;;1.77;1.53;;;25.20;97.40;;;;;;4995252;28;20186;-87
2023/08/22 05:55:23;;;;;;;1.67;1.40;;;25.10;97.30;;;;;;4999150;28;20562;-87
2023/08/22 05:57:49;;;;;;;1.77;1.50;;;25.20;97.30;;;;;;4998821;28;20193;-87
2023/08/22 06:00:16;;;;;;;2.20;1.67;;;25.20;97.20;;;;;;4996399;28;20437;-87
2023/08/22 06:02:43;;;;;;;1.70;1.60;;;25.20;97.10;;;;;;4999520;28;20191;-87
2023/08/22 06:05:09;;;;;;;2.17;1.50;;;25.30;96.90;;;;;;4996269;28;20185;-87
2023/08/22 06:07:34;;;;;;;1.70;1.60;;;25.30;96.80;;;;;;4994360;28;20186;-87
2023/08/22 06:10:00;;;;;;;3.07;1.70;;;25.40;96.70;;;;;;4992302;28;20257;-87
2023/08/22 06:12:26;;;;;;;1.50;1.40;;;25.30;96.60;;;;;;4995793;28;20193;-87
2023/08/22 06:14:52;;;;;;;1.70;1.50;;;25.30;96.60;;;;;;4994947;28;20188;-87
2023/08/22 06:17:18;;;;;;;1.60;1.50;;;25.30;96.80;;;;;;4997722;28;20184;-87
2023/08/22 06:19:48;;;;;;;1.87;1.67;;;25.30;96.50;;;;;;5012461;28;20240;-87
2023/08/22 06:22:14;;;;;;;2.13;1.70;;;25.30;96.50;;;;;;4991901;28;20189;-87
2023/08/22 06:24:39;;;;;;;1.80;1.60;;;25.30;96.40;;;;;;4997333;28;20185;-87
2023/08/22 06:27:05;;;;;;;2.13;1.70;;;25.40;96.50;;;;;;5010118;28;20211;-87
2023/08/22 06:29:32;;;;;;;1.70;1.60;;;25.40;96.40;;;;;;5001034;28;20286;-87
2023/08/22 06:32:00;;;;;;;1.50;1.40;;;25.40;96.70;;;;;;4997758;28;20518;-87
2023/08/22 06:34:26;;;;;;;1.20;1.10;;;25.40;96.30;;;;;;4994978;28;20389;-87
2023/08/22 06:36:52;;;;;;;2.67;1.50;;;25.50;96.30;;;;;;4993963;28;20445;-87
2023/08/22 06:39:18;;;;;;;1.47;1.37;;;25.50;96.20;;;;;;5014661;28;20181;-87
2023/08/22 06:41:44;;;;;;;1.57;1.20;;;25.60;96.10;;;;;;4992890;28;20185;-87
2023/08/22 06:44:09;;;;;;;1.40;1.30;;;25.60;95.90;;;;;;5007124;28;20321;-87
2023/08/22 06:46:36;;;;;;;1.37;1.27;;;25.70;95.80;;;;;;4993316;28;20256;-88
2023/08/22 06:49:02;;;;;;;1.97;1.43;;;25.80;95.70;;;;;;4993686;28;20235;-87
2023/08/22 06:51:29;;;;;;;1.57;1.40;;;25.80;95.50;;;;;;4994985;28;20177;-87
2023/08/22 06:53:54;;;;;;;1.60;1.50;;;25.80;95.30;;;;;;5015859;28;20181;-87
2023/08/22 06:56:20;;;;;;;1.97;1.60;;;25.90;95.30;;;;;;4993576;28;20316;-87
2023/08/22 06:58:46;;;;;;;1.50;1.40;;;25.90;95.10;;;;;;4994479;28;20186;-87
2023/08/22 07:01:13;;;;;;;2.33;1.47;;;26.00;95.00;;;;;;5013744;28;20335;-87
2023/08/22 07:03:39;;;;;;;2.33;1.70;;;26.10;94.80;;;;;;5012817;28;20278;-87
2023/08/22 07:06:05;;;;;;;1.70;1.60;;;26.20;94.70;;;;;;4995297;28;20189;-87
2023/08/22 07:08:31;;;;;;;2.90;1.60;;;26.20;94.50;;;;;;5015591;28;20648;-87
2023/08/22 07:11:02;;;;;;;1.50;1.40;;;26.30;94.40;;;;;;5018769;28;20174;-87
2023/08/22 07:13:28;;;;;;;2.40;1.60;;;26.30;94.10;;;;;;5016513;28;20174;-87
2023/08/22 07:15:55;;;;;;;1.70;1.30;;;26.40;93.90;;;;;;5016333;28;20205;-87
2023/08/22 07:18:20;;;;;;;1.90;1.60;;;26.40;93.90;;;;;;4997066;28;20208;-87
2023/08/22 07:20:46;;;;;;;2.33;1.58;;;26.40;93.70;;;;;;4995337;28;20193;-87
2023/08/22 07:23:12;;;;;;;1.73;1.58;;;26.50;93.80;;;;;;4995971;28;20188;-87
2023/08/22 07:25:40;;;;;;;1.75;1.60;;;26.50;93.70;;;;;;4997014;28;20347;-87
2023/08/22 07:28:05;;;;;;;1.90;1.70;;;26.50;93.50;;;;;;5012732;28;20333;-87
2023/08/22 07:30:32;;;;;;;2.17;1.40;;;26.60;93.50;;;;;;5016878;28;20173;-87
2023/08/22 07:32:58;;;;;;;1.48;1.38;;;26.60;93.20;;;;;;4997249;28;20185;-87
2023/08/22 07:35:24;;;;;;;2.17;1.73;;;26.60;93.10;;;;;;4996969;28;20189;-87
2023/08/22 07:37:50;;;;;;;1.77;1.52;;;26.70;93.10;;;;;;4999763;28;20185;-87
2023/08/22 07:40:17;;;;;;;2.50;1.40;;;26.70;92.90;;;;;;4998864;28;20204;-87
2023/08/22 07:42:43;;;;;;;1.83;1.50;;;26.80;92.80;;;;;;5000521;28;20186;-87
2023/08/22 07:45:09;;;;;;;1.67;1.40;;;26.80;92.60;;;;;;5003673;28;20188;-87
2023/08/22 07:47:35;;;;;;;1.58;1.30;;;26.90;92.50;;;;;;4998785;28;20589;-87
2023/08/22 07:50:00;;;;;;;1.48;1.38;;;27.00;92.50;;;;;;5003267;28;20481;-87
2023/08/22 07:52:26;;;;;;;1.75;1.65;;;27.20;92.20;;;;;;4999420;28;20185;-87
2023/08/22 07:54:52;;;;;;;1.95;1.50;;;27.50;91.50;;;;;;4998469;28;20296;-87
2023/08/22 07:57:18;;;;;;;2.00;1.40;;;27.80;90.40;;;;;;4999832;28;20271;-87
2023/08/22 07:59:43;;;;;;;1.80;1.40;;;28.20;89.20;;;;;;5015094;28;20178;-87
2023/08/22 08:02:09;;;;;;;2.17;1.60;;;28.40;87.50;;;;;;5018951;28;20180;-87
2023/08/22 08:04:35;;;;;;;2.08;1.50;;;28.40;86.70;;;;;;4999735;28;20299;-87
2023/08/22 08:07:01;;;;;;;1.50;1.40;;;28.30;86.80;;;;;;4999986;28;20254;-87
2023/08/22 08:09:27;;;;;;;1.40;1.20;;;28.30;86.80;;;;;;4999224;28;20236;-87
2023/08/22 08:11:53;;;;;;;1.77;1.35;;;28.50;85.60;;;;;;5004556;28;20182;-87
2023/08/22 08:14:19;;;;;;;2.00;1.35;;;28.90;83.40;;;;;;4998966;28;20628;-88
2023/08/22 08:16:45;;;;;;;1.60;1.50;;;29.20;81.50;;;;;;4994818;28;20523;-88
2023/08/22 08:19:11;;;;;;;1.75;1.40;;;29.50;79.60;;;;;;5015698;28;20340;-88
2023/08/22 08:21:37;;;;;;;1.33;1.23;;;29.80;78.10;;;;;;5011961;28;20249;-88
2023/08/22 08:24:04;;;;;;;1.30;1.20;;;29.60;77.80;;;;;;4995098;28;20189;-88
2023/08/22 08:26:30;;;;;;;1.40;1.30;;;29.80;77.40;;;;;;4997755;28;20193;-87
2023/08/22 08:28:56;;;;;;;1.67;1.20;;;29.80;76.80;;;;;;4997189;28;20221;-88
2023/08/22 08:31:22;;;;;;;2.10;1.50;;;29.80;76.50;;;;;;4997959;28;20246;-87
2023/08/22 08:33:48;;;;;;;1.90;1.67;;;29.90;75.70;;;;;;4998968;28;20687;-88
2023/08/22 08:36:13;;;;;;;2.17;1.63;;;30.00;75.20;;;;;;5019379;28;20425;-87
2023/08/22 08:38:39;;;;;;;1.40;1.30;;;30.20;74.60;;;;;;4999365;28;20418;-87
2023/08/22 08:41:05;;;;;;;1.45;1.35;;;30.30;74.00;;;;;;5007245;28;20853;-87
2023/08/22 08:43:35;;;;;;;1.75;1.52;;;30.40;73.30;;;;;;4999422;28;20216;-87
2023/08/22 08:46:03;;;;;;;1.80;1.45;;;30.50;72.80;;;;;;5018108;28;20460;-87
2023/08/22 08:48:29;;;;;;;2.03;1.63;;;30.50;72.30;;;;;;5014479;28;20356;-88
2023/08/22 08:51:01;;;;;;;1.58;1.48;;;30.70;71.70;;;;;;5019159;28;20196;-87
2023/08/22 08:53:28;;;;;;;1.75;1.50;;;30.90;71.10;;;;;;4999527;28;20554;-87
2023/08/22 08:55:53;;;;;;;1.42;1.33;;;31.00;70.60;;;;;;4999584;28;20711;-87
2023/08/22 08:58:19;;;;;;;1.60;1.50;;;31.10;70.30;;;;;;5014307;28;20189;-87
2023/08/22 09:00:46;;;;;;;1.58;1.45;;;31.00;70.20;;;;;;5016602;28;20185;-87
2023/08/22 09:03:11;;;;;;;1.92;1.50;;;31.10;70.00;;;;;;5017279;28;20570;-87
2023/08/22 09:05:37;;;;;;;1.50;1.40;;;30.80;70.30;;;;;;5013883;28;20216;-87
2023/08/22 09:08:17;;;;;;;3.95;1.88;;;30.70;71.30;;;;;;4997342;28;20324;-87
2023/08/22 09:10:52;;;;;;;5.93;1.70;;;30.30;72.70;;;;;;5009932;28;20457;-87
2023/08/22 09:13:28;;;;;;;4.72;1.83;;;29.80;75.90;;;;;;5013196;28;20231;-87
2023/08/22 09:15:59;;;;;;;2.85;2.00;;;29.60;78.80;;;;;;5000029;28;20580;-87
2023/08/22 09:18:24;;;;;;;4.32;1.83;;;29.50;79.70;;;;;;5000148;28;20505;-87
2023/08/22 09:20:51;;;;;;;3.55;1.95;;;29.40;80.30;;;;;;4998198;28;20601;-87
2023/08/22 09:23:30;;;;;;;3.00;1.83;;;29.40;81.70;;;;;;4997711;28;20182;-87
2023/08/22 09:25:56;;;;;;;2.20;1.75;;;29.20;83.20;;;;;;5004230;28;20195;-87
2023/08/22 09:28:22;;;;;;;3.45;2.00;;;29.20;83.50;;;;;;5006059;28;20493;-87
2023/08/22 09:30:49;;;;;;;4.65;2.10;;;29.30;84.00;;;;;;4996953;28;20182;-87
2023/08/22 09:33:16;;;;;;;3.90;2.10;;;29.40;83.90;;;;;;5007765;28;20180;-87
2023/08/22 09:35:42;;;;;;;2.40;1.90;;;29.40;83.80;;;;;;4994611;28;20189;-87
2023/08/22 09:38:09;;;;;;;4.68;2.05;;;29.30;84.60;;;;;;4999524;28;20173;-87
2023/08/22 09:40:35;;;;;;;4.75;2.30;;;29.10;85.70;;;;;;5013052;28;20181;-86
2023/08/22 09:43:02;;;;;;;4.07;1.90;;;29.00;87.00;;;;;;4993657;28;20184;-86
2023/08/22 09:45:31;;;;;;;3.05;1.92;;;29.20;87.10;;;;;;5014643;28;20270;-87
2023/08/22 09:47:59;;;;;;;3.42;2.15;;;29.20;86.90;;;;;;5000133;28;20189;-87
2023/08/22 09:50:36;;;;;;;2.90;2.03;;;29.30;86.60;;;;;;5017839;28;20234;-87
2023/08/22 09:53:02;;;;;;;3.67;1.85;;;29.30;86.20;;;;;;5001265;28;20490;-87
2023/08/22 09:55:29;;;;;;;3.28;1.73;;;29.40;85.70;;;;;;4997440;28;20446;-86
2023/08/22 09:57:56;;;;;;;3.90;1.98;;;29.50;85.50;;;;;;4999736;28;20181;-86
2023/08/22 10:00:26;;;;;;;3.83;1.90;;;29.60;85.20;;;;;;5018040;28;20467;-87
2023/08/22 10:02:54;;;;;;;6.70;1.92;;;29.60;84.80;;;;;;4999096;28;20177;-87
2023/08/22 10:05:20;;;;;;;2.47;1.83;;;29.70;84.40;;;;;;4997850;28;20185;-87
2023/08/22 10:07:46;;;;;;;3.67;1.73;;;29.70;83.90;;;;;;5014467;28;20173;-86
2023/08/22 10:10:12;;;;;;;3.10;1.88;;;29.80;83.80;;;;;;4999420;28;20447;-87
2023/08/22 10:12:39;;;;;;;2.17;1.80;;;29.80;83.60;;;;;;4996280;28;20379;-87
2023/08/22 10:15:07;;;;;;;2.17;1.70;;;29.80;83.40;;;;;;5008679;28;20322;-86
2023/08/22 10:17:33;;;;;;;2.95;1.90;;;29.80;83.30;;;;;;4996073;28;20187;-86
2023/08/22 10:20:06;;;;;;;2.58;1.88;;;29.80;83.40;;;;;;4996468;28;20350;-86
2023/08/22 10:22:33;;;;;;;2.92;1.95;;;29.80;83.40;;;;;;5012589;28;20187;-87
2023/08/22 10:25:06;;;;;;;2.38;1.70;;;29.80;83.60;;;;;;5007550;28;20335;-86
2023/08/22 10:27:36;;;;;;;2.63;1.88;;;29.70;83.90;;;;;;4994373;28;20355;-86
2023/08/22 10:30:14;;;;;;;2.75;1.80;;;29.60;84.80;;;;;;4994707;28;20213;-86
2023/08/22 10:32:40;;;;;;;2.80;1.85;;;29.60;85.10;;;;;;5013574;28;20275;-87
2023/08/22 10:35:15;;;;;;;2.50;1.48;;;29.50;85.20;;;;;;4992641;28;20222;-87
2023/08/22 10:37:49;;;;;;;2.88;1.70;;;29.40;85.90;;;;;;5013065;28;20180;-86
2023/08/22 10:40:33;;;;;;;2.85;1.80;;;29.40;86.40;;;;;;5002902;28;20254;-86
2023/08/22 10:43:09;;;;;;;1.63;1.52;;;29.30;87.00;;;;;;5001745;28;20747;-86
2023/08/22 10:45:40;;;;;;;2.17;1.73;;;29.30;87.40;;;;;;5012926;28;20350;-86
2023/08/22 10:48:10;;;;;;;3.40;1.77;;;29.30;87.60;;;;;;5013158;28;20435;-86
2023/08/22 10:50:39;;;;;;;3.08;1.60;;;29.20;88.10;;;;;;5007932;28;20264;-86
2023/08/22 10:53:16;;;;;;;2.17;1.80;;;29.20;88.20;;;;;;4995076;28;20173;-86
2023/08/22 10:55:42;;;;;;;2.05;1.85;;;29.20;88.70;;;;;;4995095;28;20365;-86
2023/08/22 10:58:35;;;;;;;2.72;1.75;;;29.20;89.20;;;;;;4992318;28;20523;-86
2023/08/22 11:01:04;;;;;;;3.05;1.58;;;29.20;89.40;;;;;;5009468;28;20531;-86
2023/08/22 11:03:31;;;;;;;4.10;1.70;;;29.20;89.70;;;;;;4999375;28;20241;-86
2023/08/22 11:05:57;;;;;;;2.20;1.60;;;29.10;90.00;;;;;;4990845;28;20276;-85
2023/08/22 11:08:23;;;;;;;2.05;1.70;;;29.10;90.20;;;;;;4992627;28;20204;-86
2023/08/22 11:10:50;;;;;;;3.60;1.75;;;29.10;90.30;;;;;;4999886;28;20184;-86
2023/08/22 11:13:16;;;;;;;2.53;1.63;;;29.10;90.20;;;;;;4994282;28;20181;-86
2023/08/22 11:15:42;;;;;;;1.70;1.50;;;29.10;90.30;;;;;;5017945;28;20432;-86
2023/08/22 11:18:09;;;;;;;2.60;1.73;;;29.00;90.50;;;;;;5001854;28;20251;-86
2023/08/22 11:20:35;;;;;;;2.25;2.00;;;29.10;90.50;;;;;;4997269;28;20173;-87
2023/08/22 11:23:04;;;;;;;2.25;1.70;;;29.10;90.50;;;;;;5015059;28;20326;-86
2023/08/22 11:25:29;;;;;;;1.70;1.60;;;29.20;90.40;;;;;;4996871;28;20340;-86
2023/08/22 11:27:55;;;;;;;3.15;1.40;;;29.20;90.40;;;;;;5012323;28;20181;-86
2023/08/22 11:30:21;;;;;;;2.03;1.55;;;29.20;90.40;;;;;;5023494;28;20212;-86
2023/08/22 11:32:47;;;;;;;2.10;1.58;;;29.20;90.50;;;;;;4996846;28;20454;-86
2023/08/22 11:35:12;;;;;;;2.03;1.65;;;29.10;90.60;;;;;;5000057;28;20265;-85
2023/08/22 11:37:40;;;;;;;2.25;1.70;;;29.20;90.60;;;;;;5016527;28;20185;-87
2023/08/22 11:40:16;;;;;;;1.85;1.40;;;29.20;90.60;;;;;;5002715;28;20196;-85
2023/08/22 11:42:46;;;;;;;2.05;1.60;;;29.20;90.60;;;;;;4992430;28;20185;-85
2023/08/22 11:45:13;;;;;;;2.25;1.60;;;29.20;90.50;;;;;;4995387;28;20197;-84
2023/08/22 11:47:48;;;;;;;2.65;1.65;;;29.20;90.50;;;;;;5002777;28;20245;-85
2023/08/22 11:50:25;;;;;;;2.15;1.70;;;29.20;90.50;;;;;;4997682;28;20201;-86
2023/08/22 11:52:54;;;;;;;1.77;1.65;;;29.20;90.50;;;;;;5017843;28;20209;-85
2023/08/22 11:55:27;;;;;;;2.53;1.65;;;29.20;90.50;;;;;;4996738;28;20201;-86
2023/08/22 11:57:58;;;;;;;2.03;1.80;;;29.20;90.60;;;;;;5015282;28;20177;-85
2023/08/22 12:00:29;;;;;;;2.05;1.60;;;29.30;90.60;;;;;;5013976;28;20263;-86
2023/08/22 12:02:57;;;;;;;2.83;1.70;;;29.30;90.60;;;;;;5013399;28;20228;-85
2023/08/22 12:05:33;;;;;;;3.67;1.58;;;29.30;90.60;;;;;;5016692;28;20376;-86
2023/08/22 12:08:14;;;;;;;2.55;1.60;;;29.30;90.70;;;;;;5000444;28;20198;-86
2023/08/22 12:10:44;;;;;;;3.53;2.10;;;29.30;90.90;;;;;;5021005;28;20511;-85
2023/08/22 12:13:11;;;;;;;2.60;1.60;;;29.30;90.60;;;;;;4999647;28;20184;-85
2023/08/22 12:15:40;;;;;;;2.33;1.73;;;29.30;90.70;;;;;;4999508;28;20181;-85
2023/08/22 12:18:07;;;;;;;3.10;1.92;;;29.30;90.60;;;;;;4995454;28;20495;-85
2023/08/22 12:20:34;;;;;;;2.65;1.90;;;29.30;90.60;;;;;;5015603;28;20201;-85
2023/08/22 12:23:04;;;;;;;2.95;1.70;;;29.20;90.70;;;;;;4995342;28;20344;-85
2023/08/22 12:25:34;;;;;;;2.30;1.73;;;29.30;90.70;;;;;;4998139;28;20414;-85
2023/08/22 12:28:03;;;;;;;2.30;1.88;;;29.30;90.60;;;;;;4999329;28;20459;-85
2023/08/22 12:30:36;;;;;;;3.72;1.90;;;29.30;90.50;;;;;;4999470;28;20269;-86
2023/08/22 12:33:04;;;;;;;2.38;1.80;;;29.30;90.50;;;;;;5004741;28;20353;-85
2023/08/22 12:35:35;;;;;;;2.10;1.90;;;29.30;90.50;;;;;;4996473;28;20204;-84
2023/08/22 12:38:02;;;;;;;2.63;1.67;;;29.30;90.50;;;;;;5000380;28;20543;-86
2023/08/22 12:40:28;;;;;;;2.67;1.98;;;29.30;90.50;;;;;;5008309;28;20211;-86
2023/08/22 12:42:54;;;;;;;3.88;1.80;;;29.30;90.50;;;;;;5017253;28;20307;-87
2023/08/22 12:45:22;;;;;;;2.63;1.73;;;29.30;90.50;;;;;;5013035;28;20483;-86
2023/08/22 12:47:48;;;;;;;2.88;1.80;;;29.30;90.50;;;;;;4995935;28;20283;-86